Time;durP1;ratioP1;P1;durP2;ratioP2;P2;SDS_P1;SDS_P2;PMS_P1;PMS_P2;Temp;Humidity;BMP_temperature;BMP_pressure;BME280_temperature;BME280_humidity;BME280_pressure;Samples;Min_cycle;Max_cycle;Signal;HPM_P1;HPM_P2
2022/09/06 00:01:14;;;;;;;10.95;2.65;;;;;;;26.62;45.89;101052.66;5095911;28;20020;-51
2022/09/06 00:03:42;;;;;;;10.85;2.33;;;;;;;26.64;45.91;101043.00;5095518;28;20024;-53
2022/09/06 00:06:12;;;;;;;9.98;2.97;;;;;;;26.65;45.64;101043.00;5095841;28;20031;-49
2022/09/06 00:08:45;;;;;;;10.73;2.72;;;;;;;26.65;45.72;101048.25;5095877;28;20024;-51
2022/09/06 00:11:15;;;;;;;10.38;2.42;;;;;;;26.64;45.59;101043.00;5095562;28;20352;-49
2022/09/06 00:13:42;;;;;;;9.00;2.40;;;;;;;26.65;45.59;101042.09;5095328;28;20044;-52
2022/09/06 00:16:14;;;;;;;10.65;3.05;;;;;;;26.65;45.59;101031.56;5095475;28;20021;-50
2022/09/06 00:18:43;;;;;;;11.68;2.85;;;;;;;26.64;45.71;101037.75;5077358;28;20103;-51
2022/09/06 00:21:20;;;;;;;10.27;2.70;;;;;;;26.61;45.72;101051.75;5095481;28;20117;-53
2022/09/06 00:23:49;;;;;;;10.48;3.22;;;;;;;26.63;46.08;101054.41;5077929;28;20052;-50
2022/09/06 00:26:16;;;;;;;8.50;2.58;;;;;;;26.61;45.74;101061.41;5094996;28;20109;-49
2022/09/06 00:28:45;;;;;;;16.25;3.30;;;;;;;26.62;45.69;101057.91;5095261;28;20474;-49
2022/09/06 00:31:18;;;;;;;9.70;2.80;;;;;;;26.62;45.78;101056.13;5095273;28;20073;-48
2022/09/06 00:33:48;;;;;;;8.68;2.40;;;;;;;26.55;45.94;101062.28;5095014;28;20107;-49
2022/09/06 00:36:18;;;;;;;9.45;2.30;;;;;;;26.54;46.03;101066.63;5077116;28;20079;-51
2022/09/06 00:38:48;;;;;;;7.07;2.15;;;;;;;26.54;45.82;101064.00;5095114;28;20112;-50
2022/09/06 00:41:17;;;;;;;9.32;2.33;;;;;;;26.50;46.12;101054.34;5095105;28;20030;-49
2022/09/06 00:43:45;;;;;;;6.22;1.80;;;;;;;26.52;46.18;101055.22;5094705;28;20456;-51
2022/09/06 00:46:17;;;;;;;10.38;2.92;;;;;;;26.52;45.95;101057.84;5076916;28;20099;-52
2022/09/06 00:48:47;;;;;;;12.35;2.95;;;;;;;26.52;45.94;101067.50;5060939;28;20022;-52
2022/09/06 00:51:17;;;;;;;11.32;2.58;;;;;;;26.50;46.08;101072.75;5095203;28;20026;-52
2022/09/06 00:53:47;;;;;;;8.32;2.50;;;;;;;26.45;46.34;101063.09;5094802;28;20485;-53
2022/09/06 00:56:18;;;;;;;11.25;2.53;;;;;;;26.46;46.24;101062.22;5093887;28;20035;-49
2022/09/06 00:58:47;;;;;;;12.18;2.72;;;;;;;26.45;46.18;101050.84;5094924;28;20028;-50
2022/09/06 01:01:15;;;;;;;11.63;2.92;;;;;;;26.47;45.78;101049.09;5076849;28;20465;-53
2022/09/06 01:03:44;;;;;;;8.23;2.25;;;;;;;26.50;45.78;101054.34;5094610;28;20032;-49
2022/09/06 01:06:32;;;;;;;10.80;2.47;;;;;;;26.46;46.08;101063.13;5094246;28;20032;-50
2022/09/06 01:09:23;;;;;;;10.32;2.97;;;;;;;26.44;46.13;101054.34;5088056;28;20040;-50
2022/09/06 01:12:14;;;;;;;12.68;3.22;;;;;;;26.44;45.97;101062.22;5067665;28;20028;-51
2022/09/06 01:15:01;;;;;;;9.95;2.88;;;;;;;26.47;45.91;101054.34;5069205;28;20126;-50
2022/09/06 01:17:33;;;;;;;11.90;2.90;;;;;;;26.44;46.09;101051.69;5082633;28;20036;-53
2022/09/06 01:20:23;;;;;;;9.43;2.50;;;;;;;26.46;46.03;101052.59;5094171;28;20118;-50
2022/09/06 01:23:20;;;;;;;11.15;3.05;;;;;;;26.51;45.80;101048.19;5076359;28;20028;-49
2022/09/06 01:26:11;;;;;;;6.88;2.22;;;;;;;26.46;45.84;101035.91;5076680;28;20456;-51
2022/09/06 01:28:49;;;;;;;11.18;2.28;;;;;;;26.46;46.02;101038.53;5075739;28;20492;-52
2022/09/06 01:31:36;;;;;;;10.10;2.63;;;;;;;26.47;45.67;101033.31;5076363;28;20475;-50
2022/09/06 01:34:05;;;;;;;9.90;2.45;;;;;;;26.51;45.79;101035.06;5093769;28;20130;-50
2022/09/06 01:36:40;;;;;;;7.15;2.50;;;;;;;26.49;45.71;101030.66;5094079;28;20032;-49
2022/09/06 01:39:09;;;;;;;12.80;3.47;;;;;;;26.53;45.65;101021.91;5093872;28;20043;-48
2022/09/06 01:41:38;;;;;;;9.70;2.88;;;;;;;26.45;45.78;101023.63;5075962;28;20402;-49
2022/09/06 01:44:08;;;;;;;11.50;2.75;;;;;;;26.42;45.87;101040.28;5075886;28;20024;-52
2022/09/06 01:46:45;;;;;;;10.68;3.35;;;;;;;26.42;46.09;101042.03;5094009;28;20032;-50
2022/09/06 01:49:39;;;;;;;8.82;2.58;;;;;;;26.42;46.03;101042.91;5076053;28;20016;-49
2022/09/06 01:52:30;;;;;;;13.45;3.17;;;;;;;26.44;46.03;101048.19;5086534;28;20032;-50
2022/09/06 01:55:17;;;;;;;10.88;3.22;;;;;;;26.42;46.22;101047.28;5093522;28;20067;-52
2022/09/06 01:58:09;;;;;;;14.18;3.75;;;;;;;26.38;46.27;101036.78;5086623;28;20055;-50
2022/09/06 02:00:45;;;;;;;7.85;2.35;;;;;;;26.40;46.01;101028.88;5068841;28;20047;-50
2022/09/06 02:03:24;;;;;;;11.38;3.78;;;;;;;26.48;46.06;101026.28;5075395;28;20027;-50
2022/09/06 02:05:56;;;;;;;7.75;2.67;;;;;;;26.46;45.93;101035.91;5075448;28;20154;-50
2022/09/06 02:08:45;;;;;;;9.95;2.65;;;;;;;26.47;45.97;101041.19;5074847;28;20016;-51
2022/09/06 02:11:15;;;;;;;10.88;2.53;;;;;;;26.38;45.94;101023.63;5093162;28;20035;-49
2022/09/06 02:13:48;;;;;;;11.82;3.03;;;;;;;26.43;45.84;101046.41;5092743;28;20055;-52
2022/09/06 02:16:20;;;;;;;12.00;2.58;;;;;;;26.40;45.68;101042.03;5075193;28;20035;-53
2022/09/06 02:19:02;;;;;;;11.57;3.13;;;;;;;26.41;45.90;101049.06;5075072;28;20030;-53
2022/09/06 02:21:33;;;;;;;9.88;3.17;;;;;;;26.43;45.78;101051.69;5075312;28;20491;-51
2022/09/06 02:24:04;;;;;;;9.63;3.03;;;;;;;26.45;45.68;101055.19;5092927;28;20082;-52
2022/09/06 02:26:35;;;;;;;9.18;2.92;;;;;;;26.46;45.54;101042.06;5075019;28;20024;-48
2022/09/06 02:29:04;;;;;;;8.32;2.90;;;;;;;26.26;45.70;101023.56;5075056;28;20107;-54
2022/09/06 02:31:36;;;;;;;11.23;2.92;;;;;;;26.35;45.70;101027.97;5093146;28;20035;-53
2022/09/06 02:34:05;;;;;;;9.38;2.72;;;;;;;26.37;45.89;101035.03;5092824;28;20024;-48
2022/09/06 02:36:35;;;;;;;9.07;2.78;;;;;;;26.36;45.82;101032.38;5058341;28;20093;-50
2022/09/06 02:39:04;;;;;;;9.75;2.65;;;;;;;26.37;45.66;101031.50;5092949;28;20020;-48
2022/09/06 02:41:32;;;;;;;13.32;2.60;;;;;;;26.36;45.81;101042.88;5092717;28;20038;-49
2022/09/06 02:44:00;;;;;;;10.23;2.63;;;;;;;26.32;45.78;101034.13;5092574;28;20031;-48
2022/09/06 02:46:28;;;;;;;8.93;2.33;;;;;;;26.31;45.95;101024.47;5092520;28;20032;-48
2022/09/06 02:48:57;;;;;;;10.48;2.58;;;;;;;26.31;45.93;101015.72;5092606;28;20111;-48
2022/09/06 02:51:25;;;;;;;6.65;2.13;;;;;;;26.37;45.85;101029.75;5092573;28;20047;-48
2022/09/06 02:53:54;;;;;;;8.63;2.45;;;;;;;26.39;45.80;101025.34;5092581;28;20491;-50
2022/09/06 02:56:21;;;;;;;10.25;3.35;;;;;;;26.41;45.84;101028.00;5092895;28;20077;-49
2022/09/06 02:58:50;;;;;;;11.27;2.78;;;;;;;26.41;45.70;101021.84;5092915;28;20052;-51
2022/09/06 03:01:18;;;;;;;6.28;1.63;;;;;;;26.34;45.61;101013.97;5092367;28;20024;-50
2022/09/06 03:03:47;;;;;;;9.88;3.55;;;;;;;26.31;45.72;101010.44;5092516;28;20449;-51
2022/09/06 03:06:16;;;;;;;11.25;2.53;;;;;;;26.34;45.73;101002.53;5092379;28;20398;-51
2022/09/06 03:08:48;;;;;;;8.52;2.58;;;;;;;26.30;46.04;101006.94;5074335;28;20107;-51
2022/09/06 03:11:16;;;;;;;14.10;2.72;;;;;;;26.23;46.13;101003.41;5092317;28;20059;-49
2022/09/06 03:13:45;;;;;;;12.70;2.70;;;;;;;26.29;46.10;101014.81;5092070;28;20123;-50
2022/09/06 03:16:14;;;;;;;10.65;3.15;;;;;;;26.30;46.00;101014.81;5092274;28;20036;-50
2022/09/06 03:18:41;;;;;;;8.63;2.60;;;;;;;26.21;46.05;100994.63;5093398;28;20027;-48
2022/09/06 03:21:09;;;;;;;13.98;3.40;;;;;;;26.29;45.94;101006.94;5096880;28;20031;-49
2022/09/06 03:23:38;;;;;;;12.57;3.38;;;;;;;26.21;46.19;101013.03;5096644;28;20118;-49
2022/09/06 03:26:07;;;;;;;10.30;2.88;;;;;;;26.26;46.28;101006.91;5078496;28;20020;-50
2022/09/06 03:28:36;;;;;;;9.75;2.47;;;;;;;26.20;46.35;101008.63;5096504;28;20051;-49
2022/09/06 03:31:03;;;;;;;12.95;3.17;;;;;;;26.19;46.45;101006.88;5096413;28;20110;-48
2022/09/06 03:33:31;;;;;;;11.52;3.40;;;;;;;26.18;46.15;101006.88;5096301;28;20477;-53
2022/09/06 03:36:01;;;;;;;11.35;3.40;;;;;;;26.20;46.12;101011.25;5096507;28;20028;-50
2022/09/06 03:38:30;;;;;;;15.75;4.00;;;;;;;26.24;46.08;101010.41;5096200;28;20044;-51
2022/09/06 03:40:57;;;;;;;11.10;3.50;;;;;;;26.23;46.29;100997.25;5096247;28;20060;-52
2022/09/06 03:43:26;;;;;;;12.32;3.65;;;;;;;26.18;46.21;100989.34;5095656;28;20024;-54
2022/09/06 03:45:56;;;;;;;16.50;4.25;;;;;;;26.26;45.97;100999.88;5096102;28;20115;-51
2022/09/06 03:48:27;;;;;;;15.27;4.05;;;;;;;26.21;46.28;101005.13;5095981;28;20027;-53
2022/09/06 03:51:00;;;;;;;19.23;4.05;;;;;;;26.18;46.19;101001.63;5096113;28;20039;-52
2022/09/06 03:53:29;;;;;;;13.25;3.83;;;;;;;26.18;46.38;100991.97;5095978;28;20089;-52
2022/09/06 03:55:58;;;;;;;16.10;3.53;;;;;;;26.26;46.10;100991.13;5096038;28;20100;-52
2022/09/06 03:58:33;;;;;;;15.57;3.90;;;;;;;26.42;45.85;100986.78;5096187;28;20103;-51
2022/09/06 04:01:04;;;;;;;16.80;3.65;;;;;;;26.41;45.85;100979.78;5095987;28;20070;-53
2022/09/06 04:03:32;;;;;;;16.17;3.83;;;;;;;26.41;45.91;100990.28;5095621;28;20448;-51
2022/09/06 04:06:01;;;;;;;21.77;4.60;;;;;;;26.34;45.92;100978.88;5095532;28;20020;-52
2022/09/06 04:08:29;;;;;;;14.63;4.40;;;;;;;26.29;46.11;100978.88;5095613;28;20039;-50
2022/09/06 04:10:59;;;;;;;17.30;4.43;;;;;;;26.27;46.10;100969.22;5095640;28;20093;-53
2022/09/06 04:13:28;;;;;;;13.93;3.83;;;;;;;26.17;46.32;100963.91;5095313;28;20044;-50
2022/09/06 04:16:00;;;;;;;20.75;5.05;;;;;;;26.28;46.20;100965.72;5095865;28;20516;-50
2022/09/06 04:18:30;;;;;;;12.20;3.55;;;;;;;26.24;46.64;100986.75;5095665;28;20034;-48
2022/09/06 04:20:59;;;;;;;16.95;4.32;;;;;;;26.26;46.53;100981.47;5095658;28;20116;-52
2022/09/06 04:23:28;;;;;;;17.90;4.40;;;;;;;26.18;46.79;100977.97;5095239;28;20111;-49
2022/09/06 04:25:58;;;;;;;16.17;3.90;;;;;;;26.11;47.06;100986.66;5095279;28;20028;-49
2022/09/06 04:28:27;;;;;;;18.45;4.55;;;;;;;26.18;46.47;100975.34;5095082;28;20100;-48
2022/09/06 04:30:58;;;;;;;17.63;3.97;;;;;;;26.14;46.69;100965.66;5093842;28;20026;-49
2022/09/06 04:33:29;;;;;;;17.33;4.38;;;;;;;26.16;46.83;100975.31;5094996;28;20065;-50
2022/09/06 04:36:00;;;;;;;17.33;4.28;;;;;;;26.14;46.71;100969.19;5095151;28;20081;-49
2022/09/06 04:38:32;;;;;;;16.00;4.03;;;;;;;26.08;46.79;100972.63;5095046;28;20027;-49
2022/09/06 04:41:00;;;;;;;16.77;4.00;;;;;;;26.18;46.62;100975.34;5095188;28;20044;-53
2022/09/06 04:43:29;;;;;;;20.38;5.00;;;;;;;26.15;46.71;100968.28;5095091;28;20040;-48
2022/09/06 04:46:02;;;;;;;16.13;4.30;;;;;;;26.13;46.84;100969.16;5094778;28;20477;-49
2022/09/06 04:48:30;;;;;;;16.95;4.18;;;;;;;26.07;47.11;100967.38;5077138;28;20028;-48
2022/09/06 04:50:59;;;;;;;18.15;4.65;;;;;;;26.10;46.87;100967.38;5077187;28;20062;-50
2022/09/06 04:53:27;;;;;;;19.42;5.15;;;;;;;26.04;47.25;100969.97;5095151;28;20375;-48
2022/09/06 04:55:57;;;;;;;16.90;5.32;;;;;;;26.05;47.11;100977.00;5094882;28;20145;-49
2022/09/06 04:58:26;;;;;;;16.85;4.95;;;;;;;26.02;47.08;100975.25;5095165;28;20020;-50
2022/09/06 05:00:54;;;;;;;13.68;3.63;;;;;;;26.02;46.95;100975.25;5095033;28;20071;-51
2022/09/06 05:03:22;;;;;;;15.93;4.22;;;;;;;25.92;46.86;100952.41;5094796;28;20024;-49
2022/09/06 05:05:51;;;;;;;17.90;4.28;;;;;;;26.02;46.79;100969.97;5094487;28;20103;-53
2022/09/06 05:08:18;;;;;;;16.30;4.28;;;;;;;26.06;46.67;100978.75;5094374;28;20027;-53
2022/09/06 05:10:48;;;;;;;19.67;5.25;;;;;;;26.03;46.85;100961.22;5094543;28;20158;-49
2022/09/06 05:13:15;;;;;;;16.48;3.58;;;;;;;26.04;46.94;100965.63;5076105;28;20040;-49
2022/09/06 05:15:44;;;;;;;13.75;3.50;;;;;;;26.03;46.74;100958.59;5059982;28;20020;-51
2022/09/06 05:18:11;;;;;;;19.83;4.55;;;;;;;26.06;46.56;100957.72;5094493;28;20012;-52
2022/09/06 05:20:39;;;;;;;14.93;4.18;;;;;;;26.10;46.61;100959.50;5094462;28;20020;-50
2022/09/06 05:23:06;;;;;;;14.10;4.00;;;;;;;26.04;46.67;100957.72;5093959;28;20043;-51
2022/09/06 05:25:35;;;;;;;15.98;3.90;;;;;;;26.07;46.46;100948.97;5094051;28;20103;-49
2022/09/06 05:28:03;;;;;;;17.00;4.43;;;;;;;26.03;46.59;100947.19;5094160;28;20024;-49
2022/09/06 05:30:30;;;;;;;12.38;3.45;;;;;;;26.01;46.56;100941.03;5094319;28;20016;-49
2022/09/06 05:33:00;;;;;;;12.85;3.38;;;;;;;26.00;46.65;100955.94;5076128;28;20165;-50
2022/09/06 05:35:28;;;;;;;12.80;3.63;;;;;;;25.97;46.76;100955.06;5093997;28;20115;-50
2022/09/06 05:37:57;;;;;;;20.35;4.68;;;;;;;25.98;46.60;100949.81;5094129;28;20024;-50
2022/09/06 05:40:25;;;;;;;16.23;4.53;;;;;;;26.00;46.66;100957.69;5093946;28;20078;-51
2022/09/06 05:42:54;;;;;;;14.07;4.32;;;;;;;25.97;46.82;100957.69;5092891;28;20032;-49
2022/09/06 05:45:22;;;;;;;15.95;3.78;;;;;;;25.99;46.67;100945.41;5093784;28;20467;-50
2022/09/06 05:47:51;;;;;;;15.88;2.88;;;;;;;25.99;46.65;100945.41;5093585;28;20027;-53
2022/09/06 05:50:19;;;;;;;15.98;3.80;;;;;;;25.94;46.90;100942.75;5093661;28;20032;-51
2022/09/06 05:52:48;;;;;;;14.57;4.18;;;;;;;25.99;46.96;100950.66;5093576;28;20042;-52
2022/09/06 05:55:17;;;;;;;17.27;4.30;;;;;;;25.97;46.75;100942.78;5093390;28;20424;-51
2022/09/06 05:57:44;;;;;;;16.23;4.20;;;;;;;26.01;46.55;100960.34;5093819;28;20031;-49
2022/09/06 06:00:12;;;;;;;13.98;3.75;;;;;;;25.98;46.20;100964.72;5093639;28;20012;-50
2022/09/06 06:02:40;;;;;;;11.45;2.97;;;;;;;25.95;46.36;100960.28;5093304;28;20031;-49
2022/09/06 06:05:09;;;;;;;13.18;3.22;;;;;;;25.94;46.21;100967.31;5093360;28;20027;-51
2022/09/06 06:07:36;;;;;;;12.30;3.08;;;;;;;25.97;46.25;100955.06;5093320;28;20036;-50
2022/09/06 06:10:05;;;;;;;10.10;2.47;;;;;;;25.98;46.29;100959.44;5093352;28;20031;-49
2022/09/06 06:12:33;;;;;;;12.75;3.00;;;;;;;25.97;46.37;100957.69;5093140;28;20089;-51
2022/09/06 06:15:02;;;;;;;17.08;4.72;;;;;;;25.94;46.11;100958.53;5093403;28;20394;-50
2022/09/06 06:17:30;;;;;;;20.10;3.70;;;;;;;25.89;46.40;100962.91;5093493;28;20039;-52
2022/09/06 06:19:59;;;;;;;13.10;3.15;;;;;;;25.90;46.37;100947.13;5093398;28;20021;-49
2022/09/06 06:22:27;;;;;;;17.85;3.58;;;;;;;25.92;46.47;100940.16;5093273;28;20055;-49
2022/09/06 06:24:56;;;;;;;14.38;3.92;;;;;;;25.94;46.48;100934.88;5074879;28;20100;-52
2022/09/06 06:27:23;;;;;;;15.23;4.10;;;;;;;25.92;46.32;100928.75;5093054;28;20020;-50
2022/09/06 06:29:51;;;;;;;13.70;3.45;;;;;;;26.01;46.13;100936.69;5092895;28;20031;-48
2022/09/06 06:32:19;;;;;;;12.52;3.28;;;;;;;26.04;46.21;100927.91;5092742;28;20056;-49
2022/09/06 06:34:47;;;;;;;19.08;4.18;;;;;;;25.99;46.44;100920.03;5093019;28;20099;-49
2022/09/06 06:37:16;;;;;;;15.20;3.60;;;;;;;25.94;46.53;100925.25;5092873;28;20082;-50
2022/09/06 06:39:45;;;;;;;14.93;3.97;;;;;;;25.86;46.39;100918.22;5092618;28;20028;-48
2022/09/06 06:42:14;;;;;;;13.98;3.72;;;;;;;25.96;46.63;100929.66;5092500;28;20024;-48
2022/09/06 06:44:43;;;;;;;17.73;4.10;;;;;;;26.02;46.13;100935.81;5092784;28;20031;-48
2022/09/06 06:47:11;;;;;;;14.55;3.58;;;;;;;26.00;46.37;100928.78;5092803;28;20020;-49
2022/09/06 06:49:41;;;;;;;17.35;5.00;;;;;;;25.96;46.20;100927.03;5092575;28;20032;-49
2022/09/06 06:52:10;;;;;;;16.98;4.15;;;;;;;25.87;46.35;100925.22;5092846;28;20024;-48
2022/09/06 06:54:38;;;;;;;12.25;3.85;;;;;;;25.80;46.07;100916.44;5092213;28;20394;-49
2022/09/06 06:57:08;;;;;;;13.60;2.88;;;;;;;25.84;45.99;100939.22;5092490;28;20024;-50
2022/09/06 06:59:37;;;;;;;13.65;3.60;;;;;;;25.85;45.89;100938.34;5092866;28;20413;-49
2022/09/06 07:02:05;;;;;;;14.60;3.75;;;;;;;25.78;45.67;100932.19;5092340;28;20389;-49
2022/09/06 07:04:33;;;;;;;10.95;3.65;;;;;;;25.85;46.12;100940.13;5092378;28;20394;-50
2022/09/06 07:07:01;;;;;;;13.48;3.00;;;;;;;25.90;45.79;100933.09;5092765;28;20441;-53
2022/09/06 07:09:29;;;;;;;9.60;2.70;;;;;;;25.89;45.65;100939.25;5092741;28;20157;-53
2022/09/06 07:11:57;;;;;;;16.23;4.15;;;;;;;25.91;45.60;100932.22;5092574;28;20032;-53
2022/09/06 07:14:27;;;;;;;14.80;3.03;;;;;;;25.88;45.83;100937.50;5092246;28;20408;-54
2022/09/06 07:16:58;;;;;;;12.93;3.35;;;;;;;25.92;45.51;100955.03;5074492;28;20052;-52
2022/09/06 07:19:26;;;;;;;13.27;4.00;;;;;;;25.93;45.69;100967.28;5092459;28;20094;-52
2022/09/06 07:21:55;;;;;;;10.65;3.20;;;;;;;25.94;45.58;100953.28;5092489;28;20055;-52
2022/09/06 07:24:24;;;;;;;12.15;2.85;;;;;;;25.94;45.51;100956.81;5092478;28;20062;-54
2022/09/06 07:26:51;;;;;;;13.73;3.33;;;;;;;25.92;45.70;100960.28;5092310;28;20055;-54
2022/09/06 07:29:20;;;;;;;13.10;2.88;;;;;;;25.98;45.56;100962.94;5092559;28;20077;-53
2022/09/06 07:31:48;;;;;;;12.00;3.30;;;;;;;25.92;45.47;100949.75;5092100;28;20036;-55
2022/09/06 07:34:16;;;;;;;13.32;3.47;;;;;;;25.94;45.68;100955.91;5092459;28;20943;-52
2022/09/06 07:36:45;;;;;;;13.82;3.03;;;;;;;25.96;45.57;100962.06;5074903;28;20028;-49
2022/09/06 07:39:13;;;;;;;17.00;3.92;;;;;;;25.91;45.43;100961.16;5091924;28;20111;-52
2022/09/06 07:41:42;;;;;;;11.65;2.90;;;;;;;25.90;45.59;100957.66;5092219;28;20104;-51
2022/09/06 07:44:10;;;;;;;14.48;2.55;;;;;;;25.84;45.70;100949.72;5092327;28;20035;-55
2022/09/06 07:46:39;;;;;;;15.20;3.78;;;;;;;25.84;45.61;100954.97;5092312;28;20028;-53
2022/09/06 07:49:08;;;;;;;13.02;2.78;;;;;;;25.87;45.90;100962.88;5092394;28;20028;-53
2022/09/06 07:51:36;;;;;;;13.13;2.85;;;;;;;25.90;45.84;100949.78;5092349;28;20130;-52
2022/09/06 07:54:05;;;;;;;17.83;3.22;;;;;;;25.89;45.82;100953.28;5092162;28;20028;-53
2022/09/06 07:56:34;;;;;;;12.25;3.22;;;;;;;25.86;45.93;100934.84;5092080;28;20028;-53
2022/09/06 07:59:02;;;;;;;15.10;3.30;;;;;;;25.83;46.17;100936.59;5092253;28;20382;-52
2022/09/06 08:01:40;;;;;;;10.15;2.58;;;;;;;25.81;46.30;100939.22;5092615;28;20360;-51
2022/09/06 08:04:12;;;;;;;13.05;2.42;;;;;;;25.83;46.27;100942.72;5097025;28;20558;-50
2022/09/06 08:06:43;;;;;;;17.17;3.95;;;;;;;25.86;46.38;100944.50;5099481;28;20057;-52
2022/09/06 08:09:11;;;;;;;11.60;3.13;;;;;;;25.91;46.31;100938.38;5102779;28;20024;-53
2022/09/06 08:11:40;;;;;;;12.40;3.05;;;;;;;25.90;46.22;100941.00;5102474;28;20053;-53
2022/09/06 08:14:09;;;;;;;14.68;3.40;;;;;;;26.02;45.94;100940.16;5102770;28;20032;-53
2022/09/06 08:16:38;;;;;;;18.45;3.85;;;;;;;26.09;45.97;100942.81;5099022;28;20032;-51
2022/09/06 08:19:07;;;;;;;12.38;3.40;;;;;;;26.13;46.01;100941.16;5103041;28;20014;-51
2022/09/06 08:21:34;;;;;;;11.05;3.38;;;;;;;26.15;45.78;100942.00;5074013;28;20035;-52
2022/09/06 08:24:05;;;;;;;21.73;4.18;;;;;;;26.18;45.96;100942.00;5111560;28;20055;-52
2022/09/06 08:26:34;;;;;;;15.38;4.07;;;;;;;26.32;45.69;100946.44;5076410;28;20106;-51
2022/09/06 08:29:05;;;;;;;13.65;3.42;;;;;;;26.32;45.72;100944.69;5111802;28;20394;-53
2022/09/06 08:31:34;;;;;;;12.38;3.15;;;;;;;26.37;45.92;100939.44;5096431;28;20022;-53
2022/09/06 08:34:02;;;;;;;16.08;3.97;;;;;;;26.38;45.65;100935.94;5094123;28;20032;-52
2022/09/06 08:36:30;;;;;;;15.70;2.80;;;;;;;26.35;45.93;100943.81;5103916;28;20024;-51
2022/09/06 08:38:58;;;;;;;17.92;5.13;;;;;;;26.36;46.07;100940.31;5084933;28;20080;-51
2022/09/06 08:41:28;;;;;;;14.45;3.28;;;;;;;26.41;45.82;100935.94;5094081;28;20085;-51
2022/09/06 08:44:08;;;;;;;17.08;3.72;;;;;;;26.35;46.11;100941.19;5090707;28;20039;-54
2022/09/06 08:46:38;;;;;;;13.02;3.47;;;;;;;26.42;45.64;100942.06;5093594;28;20031;-53
2022/09/06 08:49:06;;;;;;;11.15;3.35;;;;;;;26.47;45.44;100928.09;5109848;28;20055;-52
2022/09/06 08:51:55;;;;;;;15.32;3.90;;;;;;;26.46;45.59;100931.59;5109514;28;20089;-55
2022/09/06 08:54:35;;;;;;;18.90;4.10;;;;;;;26.50;45.36;100933.31;5094849;28;20040;-52
2022/09/06 08:57:19;;;;;;;10.45;3.30;;;;;;;26.54;45.31;100943.00;5090812;28;20018;-50
2022/09/06 08:59:46;;;;;;;18.10;3.58;;;;;;;26.61;44.94;100945.63;5094591;28;20023;-50
2022/09/06 09:02:20;;;;;;;21.10;4.28;;;;;;;26.54;44.93;100928.97;5075703;28;20020;-49
2022/09/06 09:05:00;;;;;;;13.55;3.75;;;;;;;26.67;44.90;100945.63;5096713;28;20019;-50
2022/09/06 09:07:49;;;;;;;14.73;3.38;;;;;;;26.67;44.72;100935.09;5099781;28;20031;-48
2022/09/06 09:10:38;;;;;;;14.13;3.28;;;;;;;26.76;44.56;100943.03;5085815;28;20047;-49
2022/09/06 09:13:09;;;;;;;14.60;3.25;;;;;;;26.79;44.34;100950.03;5094150;28;20101;-55
2022/09/06 09:15:37;;;;;;;13.18;3.10;;;;;;;26.81;44.41;100957.06;5075423;28;20053;-52
2022/09/06 09:18:04;;;;;;;15.85;4.25;;;;;;;26.82;44.68;100953.56;5093203;28;20035;-51
2022/09/06 09:20:31;;;;;;;18.08;4.70;;;;;;;26.83;44.88;100951.84;5095082;28;20024;-52
2022/09/06 09:22:58;;;;;;;14.32;3.22;;;;;;;26.82;44.99;100944.81;5094895;28;20060;-55
2022/09/06 09:25:26;;;;;;;16.00;4.20;;;;;;;26.90;44.88;100950.06;5094014;28;20504;-52
2022/09/06 09:27:56;;;;;;;20.98;4.32;;;;;;;26.91;44.78;100946.56;5093448;28;20075;-53
2022/09/06 09:30:46;;;;;;;15.93;3.97;;;;;;;26.92;44.89;100953.59;5075963;28;20081;-53
2022/09/06 09:33:40;;;;;;;15.13;3.88;;;;;;;26.94;44.85;100954.47;5099891;28;20030;-53
2022/09/06 09:36:13;;;;;;;19.15;4.72;;;;;;;26.95;44.94;100958.88;5104030;28;20059;-49
2022/09/06 09:38:43;;;;;;;17.50;4.20;;;;;;;26.88;44.87;100958.00;5088199;28;20028;-51
2022/09/06 09:41:28;;;;;;;14.20;3.80;;;;;;;26.96;44.87;100968.53;5108705;28;21268;-53
2022/09/06 09:44:00;;;;;;;17.05;4.63;;;;;;;26.97;44.67;100965.00;5088223;28;20031;-55
2022/09/06 09:46:31;;;;;;;21.25;4.93;;;;;;;26.98;44.75;100966.75;5076418;28;20028;-51
2022/09/06 09:49:07;;;;;;;21.15;5.03;;;;;;;27.00;44.67;100975.53;5092330;28;20030;-50
2022/09/06 09:51:37;;;;;;;20.35;5.10;;;;;;;27.01;44.96;100973.78;5094356;28;20055;-52
2022/09/06 09:54:08;;;;;;;21.40;4.72;;;;;;;27.03;44.76;100975.53;5074839;28;20016;-49
2022/09/06 09:56:55;;;;;;;18.33;5.15;;;;;;;27.02;44.91;100973.78;5104640;28;20053;-52
2022/09/06 09:59:32;;;;;;;18.23;5.32;;;;;;;27.05;44.80;100979.03;5059996;28;20571;-54
2022/09/06 10:02:01;;;;;;;24.98;5.65;;;;;;;27.11;44.86;100976.41;5091999;28;20103;-53
2022/09/06 10:04:45;;;;;;;23.55;5.40;;;;;;;27.09;44.96;100969.38;5071478;28;20032;-51
2022/09/06 10:07:16;;;;;;;26.13;4.82;;;;;;;27.12;44.82;100974.66;5088514;28;20058;-52
2022/09/06 10:09:48;;;;;;;20.98;4.82;;;;;;;27.11;44.93;100971.16;5089585;28;20036;-53
2022/09/06 10:12:19;;;;;;;21.20;5.90;;;;;;;27.03;45.35;100972.91;5106821;28;20028;-53
2022/09/06 10:14:49;;;;;;;26.48;6.05;;;;;;;27.04;45.36;100971.16;5087899;28;20075;-53
2022/09/06 10:17:32;;;;;;;23.65;6.10;;;;;;;26.95;46.33;100967.63;5104853;28;20024;-55
2022/09/06 10:20:06;;;;;;;26.33;6.82;;;;;;;26.89;45.81;100972.88;5105032;28;20046;-54
2022/09/06 10:22:51;;;;;;;28.17;6.07;;;;;;;26.91;45.87;100971.13;5097861;28;20156;-53
2022/09/06 10:25:38;;;;;;;21.20;5.53;;;;;;;26.85;46.09;100968.50;5096539;28;20066;-54
2022/09/06 10:28:14;;;;;;;23.05;5.82;;;;;;;26.93;46.23;100963.25;5087392;28;20497;-53
2022/09/06 10:30:53;;;;;;;21.90;5.55;;;;;;;26.85;46.34;100965.88;5081332;28;20024;-53
2022/09/06 10:33:45;;;;;;;21.95;5.25;;;;;;;26.90;46.19;100972.00;5081183;28;20545;-52
2022/09/06 10:36:15;;;;;;;21.35;5.20;;;;;;;27.01;45.96;100963.25;5087373;28;20032;-53
2022/09/06 10:39:05;;;;;;;21.80;5.32;;;;;;;26.92;46.40;100949.19;5099123;28;20643;-53
2022/09/06 10:41:34;;;;;;;22.58;5.50;;;;;;;26.99;46.22;100953.59;5092049;28;20123;-53
2022/09/06 10:44:24;;;;;;;16.60;5.30;;;;;;;27.02;46.26;100952.72;5100994;28;20402;-52
2022/09/06 10:46:59;;;;;;;14.68;3.67;;;;;;;27.04;45.90;100960.63;5091288;28;20036;-54
2022/09/06 10:49:28;;;;;;;20.10;5.10;;;;;;;27.08;45.96;100947.44;5100135;28;20088;-55
2022/09/06 10:52:00;;;;;;;23.90;6.30;;;;;;;27.05;46.57;100951.84;5100825;28;20073;-53
2022/09/06 10:54:30;;;;;;;25.02;5.55;;;;;;;27.08;46.69;100946.56;5080621;28;20047;-54
2022/09/06 10:57:20;;;;;;;25.98;7.03;;;;;;;27.03;47.76;100938.66;5076212;28;20096;-52
2022/09/06 11:00:12;;;;;;;22.73;5.47;;;;;;;27.09;47.80;100946.56;5081432;28;20378;-51
2022/09/06 11:03:18;;;;;;;30.33;6.43;;;;;;;27.15;47.15;100937.78;5098135;28;20028;-51
2022/09/06 11:05:53;;;;;;;32.83;8.20;;;;;;;27.11;47.46;100931.66;5088034;28;20040;-50
2022/09/06 11:08:23;;;;;;;;;;;;;;;27.19;46.95;100934.28;5099915;28;20065;-48
2022/09/06 11:10:54;;;;;;;26.83;5.93;;;;;;;27.25;46.71;100930.75;5082341;28;20259;-52
2022/09/06 11:13:25;;;;;;;27.60;6.35;;;;;;;27.16;46.82;100915.84;5090885;28;20049;-53
2022/09/06 11:16:03;;;;;;;24.15;6.18;;;;;;;27.18;46.64;100922.00;5073076;28;20166;-53
2022/09/06 11:18:46;;;;;;;23.95;6.25;;;;;;;27.19;46.55;100915.84;5073833;28;20028;-53
2022/09/06 11:21:34;;;;;;;28.45;6.80;;;;;;;27.19;46.44;100920.22;5057914;28;20024;-53
2022/09/06 11:24:34;;;;;;;25.05;6.72;;;;;;;27.19;46.45;100918.47;5053307;28;20094;-55
2022/09/06 11:27:06;;;;;;;23.92;6.30;;;;;;;27.18;46.25;100910.56;5075527;28;20036;-55
2022/09/06 11:29:35;;;;;;;19.98;5.53;;;;;;;27.18;46.18;100911.47;5080385;28;20020;-52
2022/09/06 11:42:31;;;;;;;25.17;7.05;;;;;;;27.20;45.75;100966.75;5084112;28;20043;-55
2022/09/06 11:44:59;;;;;;;28.55;7.43;;;;;;;27.18;45.97;100950.97;5050055;28;20036;-53
2022/09/06 11:47:39;;;;;;;28.50;7.13;;;;;;;27.17;45.72;100954.47;5084545;28;20085;-54
2022/09/06 11:50:27;;;;;;;28.08;6.93;;;;;;;27.14;45.76;100951.84;5085756;28;20094;-55
2022/09/06 11:53:06;;;;;;;27.90;6.90;;;;;;;27.15;45.68;100946.56;5068113;28;20035;-54